sensor_id;sensor_type;location;lat;lon;timestamp;temperature;humidity
45785;DHT22;31489;51.404;5.474;2023-11-21T00:01:03;11.50;83.40
45785;DHT22;31489;51.404;5.474;2023-11-21T00:03:30;11.60;83.50
45785;DHT22;31489;51.404;5.474;2023-11-21T00:05:56;11.60;83.50
45785;DHT22;31489;51.404;5.474;2023-11-21T00:08:21;11.60;83.50
45785;DHT22;31489;51.404;5.474;2023-11-21T00:10:47;11.60;83.50
45785;DHT22;31489;51.404;5.474;2023-11-21T00:13:14;11.60;83.50
45785;DHT22;31489;51.404;5.474;2023-11-21T00:15:39;11.60;83.50
45785;DHT22;31489;51.404;5.474;2023-11-21T00:18:06;11.60;83.50
45785;DHT22;31489;51.404;5.474;2023-11-21T00:20:31;11.60;83.50
45785;DHT22;31489;51.404;5.474;2023-11-21T00:22:57;11.60;83.50
45785;DHT22;31489;51.404;5.474;2023-11-21T00:25:22;11.60;83.50
45785;DHT22;31489;51.404;5.474;2023-11-21T00:27:48;11.70;83.70
45785;DHT22;31489;51.404;5.474;2023-11-21T00:30:14;11.70;83.60
45785;DHT22;31489;51.404;5.474;2023-11-21T00:32:40;11.70;83.60
45785;DHT22;31489;51.404;5.474;2023-11-21T00:35:06;11.70;83.60
45785;DHT22;31489;51.404;5.474;2023-11-21T00:37:31;11.70;83.60
45785;DHT22;31489;51.404;5.474;2023-11-21T00:39:57;11.70;83.60
45785;DHT22;31489;51.404;5.474;2023-11-21T00:42:23;11.70;83.50
45785;DHT22;31489;51.404;5.474;2023-11-21T00:44:49;11.70;83.40
45785;DHT22;31489;51.404;5.474;2023-11-21T00:47:14;11.70;83.30
45785;DHT22;31489;51.404;5.474;2023-11-21T00:49:40;11.70;83.20
45785;DHT22;31489;51.404;5.474;2023-11-21T00:52:06;11.70;83.20
45785;DHT22;31489;51.404;5.474;2023-11-21T00:54:32;11.70;83.10
45785;DHT22;31489;51.404;5.474;2023-11-21T00:56:59;11.70;83.00
45785;DHT22;31489;51.404;5.474;2023-11-21T00:59:24;11.70;82.90
45785;DHT22;31489;51.404;5.474;2023-11-21T01:01:50;11.70;82.80
45785;DHT22;31489;51.404;5.474;2023-11-21T01:04:16;11.60;82.70
45785;DHT22;31489;51.404;5.474;2023-11-21T01:06:41;11.60;82.60
45785;DHT22;31489;51.404;5.474;2023-11-21T01:09:07;11.60;82.50
45785;DHT22;31489;51.404;5.474;2023-11-21T01:11:34;11.60;82.40
45785;DHT22;31489;51.404;5.474;2023-11-21T01:14:03;11.60;82.20
45785;DHT22;31489;51.404;5.474;2023-11-21T01:16:29;11.50;82.10
45785;DHT22;31489;51.404;5.474;2023-11-21T01:18:54;11.50;82.00
45785;DHT22;31489;51.404;5.474;2023-11-21T01:21:20;11.50;81.90
45785;DHT22;31489;51.404;5.474;2023-11-21T01:23:45;11.40;81.80
45785;DHT22;31489;51.404;5.474;2023-11-21T01:26:12;11.40;81.80
45785;DHT22;31489;51.404;5.474;2023-11-21T01:28:38;11.40;81.70
45785;DHT22;31489;51.404;5.474;2023-11-21T01:31:04;11.30;81.60
45785;DHT22;31489;51.404;5.474;2023-11-21T01:33:29;11.30;81.60
45785;DHT22;31489;51.404;5.474;2023-11-21T01:35:55;11.30;81.60
45785;DHT22;31489;51.404;5.474;2023-11-21T01:38:21;11.20;81.50
45785;DHT22;31489;51.404;5.474;2023-11-21T01:40:47;11.20;81.40
45785;DHT22;31489;51.404;5.474;2023-11-21T01:43:13;11.20;81.50
45785;DHT22;31489;51.404;5.474;2023-11-21T01:45:39;11.20;81.50
45785;DHT22;31489;51.404;5.474;2023-11-21T01:48:05;11.10;81.40
45785;DHT22;31489;51.404;5.474;2023-11-21T01:50:33;11.10;81.50
45785;DHT22;31489;51.404;5.474;2023-11-21T01:52:59;11.10;81.40
45785;DHT22;31489;51.404;5.474;2023-11-21T01:55:26;11.00;81.40
45785;DHT22;31489;51.404;5.474;2023-11-21T01:57:53;11.00;81.50
45785;DHT22;31489;51.404;5.474;2023-11-21T02:00:18;11.00;81.70
45785;DHT22;31489;51.404;5.474;2023-11-21T02:02:45;11.00;81.90
45785;DHT22;31489;51.404;5.474;2023-11-21T02:05:12;11.00;82.10
45785;DHT22;31489;51.404;5.474;2023-11-21T02:07:39;11.00;82.30
45785;DHT22;31489;51.404;5.474;2023-11-21T02:10:06;11.00;82.50
45785;DHT22;31489;51.404;5.474;2023-11-21T02:12:32;11.00;82.80
45785;DHT22;31489;51.404;5.474;2023-11-21T02:14:58;11.00;83.10
45785;DHT22;31489;51.404;5.474;2023-11-21T02:17:24;11.00;83.20
45785;DHT22;31489;51.404;5.474;2023-11-21T02:19:49;11.00;83.20
45785;DHT22;31489;51.404;5.474;2023-11-21T02:22:17;11.10;83.40
45785;DHT22;31489;51.404;5.474;2023-11-21T02:24:45;11.10;83.50
45785;DHT22;31489;51.404;5.474;2023-11-21T02:27:11;11.10;83.70
45785;DHT22;31489;51.404;5.474;2023-11-21T02:29:37;11.20;84.30
45785;DHT22;31489;51.404;5.474;2023-11-21T02:32:03;11.20;83.80
45785;DHT22;31489;51.404;5.474;2023-11-21T02:34:29;11.20;83.80
45785;DHT22;31489;51.404;5.474;2023-11-21T02:36:55;11.20;83.90
45785;DHT22;31489;51.404;5.474;2023-11-21T02:39:21;11.20;83.80
45785;DHT22;31489;51.404;5.474;2023-11-21T02:41:47;11.20;83.90
45785;DHT22;31489;51.404;5.474;2023-11-21T02:44:13;11.20;83.80
45785;DHT22;31489;51.404;5.474;2023-11-21T02:46:39;11.20;83.80
45785;DHT22;31489;51.404;5.474;2023-11-21T02:49:05;11.20;83.70
45785;DHT22;31489;51.404;5.474;2023-11-21T02:51:32;11.10;83.60
45785;DHT22;31489;51.404;5.474;2023-11-21T02:53:58;11.10;83.60
45785;DHT22;31489;51.404;5.474;2023-11-21T02:56:26;11.10;83.80
45785;DHT22;31489;51.404;5.474;2023-11-21T02:58:59;11.10;83.90
45785;DHT22;31489;51.404;5.474;2023-11-21T03:01:25;11.10;83.80
45785;DHT22;31489;51.404;5.474;2023-11-21T03:03:51;11.10;83.80
45785;DHT22;31489;51.404;5.474;2023-11-21T03:06:18;11.00;83.90
45785;DHT22;31489;51.404;5.474;2023-11-21T03:08:44;11.00;84.00
45785;DHT22;31489;51.404;5.474;2023-11-21T03:11:09;11.00;84.20
45785;DHT22;31489;51.404;5.474;2023-11-21T03:13:35;11.00;84.10
45785;DHT22;31489;51.404;5.474;2023-11-21T03:16:00;11.10;84.20
45785;DHT22;31489;51.404;5.474;2023-11-21T03:18:26;11.10;84.30
45785;DHT22;31489;51.404;5.474;2023-11-21T03:20:54;11.00;84.10
45785;DHT22;31489;51.404;5.474;2023-11-21T03:23:20;11.10;84.30
45785;DHT22;31489;51.404;5.474;2023-11-21T03:25:46;11.00;84.20
45785;DHT22;31489;51.404;5.474;2023-11-21T03:28:11;11.00;84.20
45785;DHT22;31489;51.404;5.474;2023-11-21T03:30:37;11.00;84.20
45785;DHT22;31489;51.404;5.474;2023-11-21T03:33:03;11.00;84.20
45785;DHT22;31489;51.404;5.474;2023-11-21T03:35:28;11.00;84.30
45785;DHT22;31489;51.404;5.474;2023-11-21T03:37:54;11.10;84.50
45785;DHT22;31489;51.404;5.474;2023-11-21T03:40:19;11.00;84.40
45785;DHT22;31489;51.404;5.474;2023-11-21T03:42:46;11.10;84.40
45785;DHT22;31489;51.404;5.474;2023-11-21T03:45:12;11.10;84.30
45785;DHT22;31489;51.404;5.474;2023-11-21T03:47:38;11.00;84.30
45785;DHT22;31489;51.404;5.474;2023-11-21T03:50:04;11.00;84.30
45785;DHT22;31489;51.404;5.474;2023-11-21T03:52:30;11.00;84.50
45785;DHT22;31489;51.404;5.474;2023-11-21T03:54:56;11.00;84.50
45785;DHT22;31489;51.404;5.474;2023-11-21T03:57:22;11.00;84.40
45785;DHT22;31489;51.404;5.474;2023-11-21T03:59:47;11.00;84.20
45785;DHT22;31489;51.404;5.474;2023-11-21T04:02:13;11.00;84.10
45785;DHT22;31489;51.404;5.474;2023-11-21T04:04:38;11.00;84.70
45785;DHT22;31489;51.404;5.474;2023-11-21T04:07:04;11.00;84.10
45785;DHT22;31489;51.404;5.474;2023-11-21T04:09:30;11.00;84.10
45785;DHT22;31489;51.404;5.474;2023-11-21T04:11:56;11.00;84.10
45785;DHT22;31489;51.404;5.474;2023-11-21T04:14:22;11.00;84.10
45785;DHT22;31489;51.404;5.474;2023-11-21T04:16:48;11.00;84.20
45785;DHT22;31489;51.404;5.474;2023-11-21T04:19:14;11.00;84.30
45785;DHT22;31489;51.404;5.474;2023-11-21T04:21:42;11.00;84.30
45785;DHT22;31489;51.404;5.474;2023-11-21T04:24:09;10.90;84.30
45785;DHT22;31489;51.404;5.474;2023-11-21T04:26:34;10.90;84.10
45785;DHT22;31489;51.404;5.474;2023-11-21T04:29:00;10.90;84.00
45785;DHT22;31489;51.404;5.474;2023-11-21T04:31:26;10.90;84.00
45785;DHT22;31489;51.404;5.474;2023-11-21T04:33:51;10.90;84.20
45785;DHT22;31489;51.404;5.474;2023-11-21T04:36:17;10.80;84.20
45785;DHT22;31489;51.404;5.474;2023-11-21T04:38:42;10.90;84.30
45785;DHT22;31489;51.404;5.474;2023-11-21T04:41:08;10.90;84.30
45785;DHT22;31489;51.404;5.474;2023-11-21T04:43:34;10.90;84.20
45785;DHT22;31489;51.404;5.474;2023-11-21T04:45:59;10.90;84.20
45785;DHT22;31489;51.404;5.474;2023-11-21T04:48:25;10.90;84.20
45785;DHT22;31489;51.404;5.474;2023-11-21T04:50:51;10.90;84.10
45785;DHT22;31489;51.404;5.474;2023-11-21T04:53:17;10.80;84.00
45785;DHT22;31489;51.404;5.474;2023-11-21T04:55:42;10.90;84.10
45785;DHT22;31489;51.404;5.474;2023-11-21T04:58:09;10.90;84.20
45785;DHT22;31489;51.404;5.474;2023-11-21T05:00:35;10.80;84.20
45785;DHT22;31489;51.404;5.474;2023-11-21T05:03:02;10.90;84.10
45785;DHT22;31489;51.404;5.474;2023-11-21T05:05:28;10.90;84.00
45785;DHT22;31489;51.404;5.474;2023-11-21T05:07:55;10.90;84.10
45785;DHT22;31489;51.404;5.474;2023-11-21T05:10:20;10.80;84.20
45785;DHT22;31489;51.404;5.474;2023-11-21T05:12:48;10.80;84.20
45785;DHT22;31489;51.404;5.474;2023-11-21T05:15:16;10.80;84.30
45785;DHT22;31489;51.404;5.474;2023-11-21T05:17:43;10.80;84.30
45785;DHT22;31489;51.404;5.474;2023-11-21T05:20:13;10.80;84.30
45785;DHT22;31489;51.404;5.474;2023-11-21T05:22:42;10.80;84.30
45785;DHT22;31489;51.404;5.474;2023-11-21T05:25:08;10.90;84.40
45785;DHT22;31489;51.404;5.474;2023-11-21T05:27:34;10.80;84.40
45785;DHT22;31489;51.404;5.474;2023-11-21T05:30:01;10.90;84.50
45785;DHT22;31489;51.404;5.474;2023-11-21T05:32:27;10.90;84.40
45785;DHT22;31489;51.404;5.474;2023-11-21T05:34:53;10.90;84.50
45785;DHT22;31489;51.404;5.474;2023-11-21T05:37:19;10.90;84.50
45785;DHT22;31489;51.404;5.474;2023-11-21T05:39:44;11.00;84.70
45785;DHT22;31489;51.404;5.474;2023-11-21T05:42:10;11.00;84.70
45785;DHT22;31489;51.404;5.474;2023-11-21T05:44:41;11.00;84.70
45785;DHT22;31489;51.404;5.474;2023-11-21T05:47:06;11.00;84.50
45785;DHT22;31489;51.404;5.474;2023-11-21T05:49:32;11.10;84.50
45785;DHT22;31489;51.404;5.474;2023-11-21T05:51:59;11.00;85.00
45785;DHT22;31489;51.404;5.474;2023-11-21T05:54:25;11.10;84.40
45785;DHT22;31489;51.404;5.474;2023-11-21T05:56:51;11.10;84.30
45785;DHT22;31489;51.404;5.474;2023-11-21T05:59:17;11.10;84.30
45785;DHT22;31489;51.404;5.474;2023-11-21T06:01:42;11.10;84.30
45785;DHT22;31489;51.404;5.474;2023-11-21T06:04:08;11.20;84.40
45785;DHT22;31489;51.404;5.474;2023-11-21T06:06:35;11.20;84.40
45785;DHT22;31489;51.404;5.474;2023-11-21T06:09:00;11.10;84.30
45785;DHT22;31489;51.404;5.474;2023-11-21T06:11:26;11.20;84.40
45785;DHT22;31489;51.404;5.474;2023-11-21T06:13:52;11.20;84.40
45785;DHT22;31489;51.404;5.474;2023-11-21T06:16:18;11.20;84.40
45785;DHT22;31489;51.404;5.474;2023-11-21T06:18:45;11.20;84.50
45785;DHT22;31489;51.404;5.474;2023-11-21T06:21:11;11.20;84.50
45785;DHT22;31489;51.404;5.474;2023-11-21T06:23:38;11.20;84.40
45785;DHT22;31489;51.404;5.474;2023-11-21T06:26:03;11.20;84.50
45785;DHT22;31489;51.404;5.474;2023-11-21T06:28:30;11.30;84.50
45785;DHT22;31489;51.404;5.474;2023-11-21T06:30:56;11.30;84.50
45785;DHT22;31489;51.404;5.474;2023-11-21T06:33:23;11.30;84.50
45785;DHT22;31489;51.404;5.474;2023-11-21T06:35:49;11.30;84.50
45785;DHT22;31489;51.404;5.474;2023-11-21T06:38:15;11.30;84.50
45785;DHT22;31489;51.404;5.474;2023-11-21T06:40:40;11.30;84.60
45785;DHT22;31489;51.404;5.474;2023-11-21T06:43:06;11.30;84.50
45785;DHT22;31489;51.404;5.474;2023-11-21T06:45:33;11.30;84.50
45785;DHT22;31489;51.404;5.474;2023-11-21T06:47:59;11.40;84.50
45785;DHT22;31489;51.404;5.474;2023-11-21T06:50:25;11.30;84.50
45785;DHT22;31489;51.404;5.474;2023-11-21T06:52:51;11.40;84.70
45785;DHT22;31489;51.404;5.474;2023-11-21T06:55:16;11.30;84.70
45785;DHT22;31489;51.404;5.474;2023-11-21T06:57:42;11.30;84.80
45785;DHT22;31489;51.404;5.474;2023-11-21T07:00:09;11.30;84.80
45785;DHT22;31489;51.404;5.474;2023-11-21T07:02:35;11.30;84.80
45785;DHT22;31489;51.404;5.474;2023-11-21T07:05:00;11.40;85.00
45785;DHT22;31489;51.404;5.474;2023-11-21T07:07:27;11.40;85.10
45785;DHT22;31489;51.404;5.474;2023-11-21T07:09:53;11.40;85.20
45785;DHT22;31489;51.404;5.474;2023-11-21T07:12:18;11.30;85.20
45785;DHT22;31489;51.404;5.474;2023-11-21T07:14:44;11.40;85.30
45785;DHT22;31489;51.404;5.474;2023-11-21T07:17:11;11.40;85.30
45785;DHT22;31489;51.404;5.474;2023-11-21T07:19:40;11.50;85.30
45785;DHT22;31489;51.404;5.474;2023-11-21T07:22:06;11.50;85.30
45785;DHT22;31489;51.404;5.474;2023-11-21T07:24:34;11.50;85.20
45785;DHT22;31489;51.404;5.474;2023-11-21T07:26:59;11.50;85.30
45785;DHT22;31489;51.404;5.474;2023-11-21T07:29:26;11.50;85.30
45785;DHT22;31489;51.404;5.474;2023-11-21T07:31:52;11.50;85.40
45785;DHT22;31489;51.404;5.474;2023-11-21T07:34:19;11.50;85.40
45785;DHT22;31489;51.404;5.474;2023-11-21T07:36:46;11.50;85.40
45785;DHT22;31489;51.404;5.474;2023-11-21T07:39:11;11.50;85.40
45785;DHT22;31489;51.404;5.474;2023-11-21T07:41:37;11.60;85.40
45785;DHT22;31489;51.404;5.474;2023-11-21T07:44:04;11.60;85.50
45785;DHT22;31489;51.404;5.474;2023-11-21T07:46:30;11.60;85.50
45785;DHT22;31489;51.404;5.474;2023-11-21T07:48:56;11.70;85.60
45785;DHT22;31489;51.404;5.474;2023-11-21T07:51:21;11.70;85.60
45785;DHT22;31489;51.404;5.474;2023-11-21T07:53:47;11.70;85.70
45785;DHT22;31489;51.404;5.474;2023-11-21T07:56:13;11.70;85.70
45785;DHT22;31489;51.404;5.474;2023-11-21T07:58:38;11.70;85.70
45785;DHT22;31489;51.404;5.474;2023-11-21T08:01:04;11.70;85.70
45785;DHT22;31489;51.404;5.474;2023-11-21T08:03:30;11.70;85.60
45785;DHT22;31489;51.404;5.474;2023-11-21T08:05:59;11.80;86.20
45785;DHT22;31489;51.404;5.474;2023-11-21T08:08:25;11.80;85.70
45785;DHT22;31489;51.404;5.474;2023-11-21T08:10:51;11.80;85.80
45785;DHT22;31489;51.404;5.474;2023-11-21T08:13:25;11.90;85.90
45785;DHT22;31489;51.404;5.474;2023-11-21T08:15:54;11.90;85.90
45785;DHT22;31489;51.404;5.474;2023-11-21T08:18:20;11.90;85.80
45785;DHT22;31489;51.404;5.474;2023-11-21T08:20:45;11.90;85.90
45785;DHT22;31489;51.404;5.474;2023-11-21T08:23:15;11.90;86.00
45785;DHT22;31489;51.404;5.474;2023-11-21T08:25:43;11.90;86.00
45785;DHT22;31489;51.404;5.474;2023-11-21T08:28:08;12.00;86.00
45785;DHT22;31489;51.404;5.474;2023-11-21T08:30:34;12.00;86.10
45785;DHT22;31489;51.404;5.474;2023-11-21T08:33:00;12.00;86.20
45785;DHT22;31489;51.404;5.474;2023-11-21T08:35:26;12.00;86.30
45785;DHT22;31489;51.404;5.474;2023-11-21T08:37:52;12.00;86.30
45785;DHT22;31489;51.404;5.474;2023-11-21T08:40:21;12.10;86.40
45785;DHT22;31489;51.404;5.474;2023-11-21T08:42:47;12.10;86.50
45785;DHT22;31489;51.404;5.474;2023-11-21T08:45:14;12.10;86.50
45785;DHT22;31489;51.404;5.474;2023-11-21T08:47:40;12.10;86.50
45785;DHT22;31489;51.404;5.474;2023-11-21T08:50:07;12.20;86.60
45785;DHT22;31489;51.404;5.474;2023-11-21T08:52:33;12.20;86.70
45785;DHT22;31489;51.404;5.474;2023-11-21T08:54:59;12.20;86.70
45785;DHT22;31489;51.404;5.474;2023-11-21T08:57:28;12.20;87.30
45785;DHT22;31489;51.404;5.474;2023-11-21T08:59:54;12.30;86.80
45785;DHT22;31489;51.404;5.474;2023-11-21T09:02:23;12.30;86.70
45785;DHT22;31489;51.404;5.474;2023-11-21T09:04:51;12.30;86.80
45785;DHT22;31489;51.404;5.474;2023-11-21T09:07:18;12.30;86.80
45785;DHT22;31489;51.404;5.474;2023-11-21T09:09:48;12.40;87.00
45785;DHT22;31489;51.404;5.474;2023-11-21T09:12:15;12.40;87.10
45785;DHT22;31489;51.404;5.474;2023-11-21T09:14:42;12.40;87.10
45785;DHT22;31489;51.404;5.474;2023-11-21T09:17:10;12.40;87.00
45785;DHT22;31489;51.404;5.474;2023-11-21T09:19:40;12.50;87.10
45785;DHT22;31489;51.404;5.474;2023-11-21T09:22:06;12.50;87.00
45785;DHT22;31489;51.404;5.474;2023-11-21T09:24:32;12.50;87.00
45785;DHT22;31489;51.404;5.474;2023-11-21T09:26:58;12.50;87.10
45785;DHT22;31489;51.404;5.474;2023-11-21T09:29:28;12.50;87.10
45785;DHT22;31489;51.404;5.474;2023-11-21T09:31:54;12.60;87.20
45785;DHT22;31489;51.404;5.474;2023-11-21T09:34:21;12.60;87.20
45785;DHT22;31489;51.404;5.474;2023-11-21T09:36:46;12.60;87.30
45785;DHT22;31489;51.404;5.474;2023-11-21T09:39:13;12.70;87.40
45785;DHT22;31489;51.404;5.474;2023-11-21T09:41:46;12.70;87.30
45785;DHT22;31489;51.404;5.474;2023-11-21T09:44:25;12.70;87.30
45785;DHT22;31489;51.404;5.474;2023-11-21T09:46:59;12.70;87.30
45785;DHT22;31489;51.404;5.474;2023-11-21T09:49:26;12.80;87.40
45785;DHT22;31489;51.404;5.474;2023-11-21T09:51:55;12.80;87.30
45785;DHT22;31489;51.404;5.474;2023-11-21T09:54:22;12.80;87.30
45785;DHT22;31489;51.404;5.474;2023-11-21T09:56:48;12.90;87.40
45785;DHT22;31489;51.404;5.474;2023-11-21T09:59:16;12.80;87.30
45785;DHT22;31489;51.404;5.474;2023-11-21T10:01:42;12.90;87.40
45785;DHT22;31489;51.404;5.474;2023-11-21T10:04:11;12.90;87.30
45785;DHT22;31489;51.404;5.474;2023-11-21T10:06:41;12.90;87.40
45785;DHT22;31489;51.404;5.474;2023-11-21T10:09:09;12.90;87.40
45785;DHT22;31489;51.404;5.474;2023-11-21T10:11:40;12.90;87.50
45785;DHT22;31489;51.404;5.474;2023-11-21T10:14:08;13.00;87.50
45785;DHT22;31489;51.404;5.474;2023-11-21T10:16:36;13.00;87.40
45785;DHT22;31489;51.404;5.474;2023-11-21T10:19:04;13.00;87.50
45785;DHT22;31489;51.404;5.474;2023-11-21T10:21:32;13.00;87.70
45785;DHT22;31489;51.404;5.474;2023-11-21T10:23:58;13.00;87.70
45785;DHT22;31489;51.404;5.474;2023-11-21T10:26:26;13.00;87.80
45785;DHT22;31489;51.404;5.474;2023-11-21T10:29:01;13.10;87.90
45785;DHT22;31489;51.404;5.474;2023-11-21T10:31:32;13.10;88.10
45785;DHT22;31489;51.404;5.474;2023-11-21T10:34:18;13.20;88.20
45785;DHT22;31489;51.404;5.474;2023-11-21T10:36:44;13.20;88.20
45785;DHT22;31489;51.404;5.474;2023-11-21T10:39:14;13.20;88.20
45785;DHT22;31489;51.404;5.474;2023-11-21T10:41:46;13.30;88.30
45785;DHT22;31489;51.404;5.474;2023-11-21T10:44:17;13.30;88.20
45785;DHT22;31489;51.404;5.474;2023-11-21T10:46:50;13.30;88.20
45785;DHT22;31489;51.404;5.474;2023-11-21T10:49:20;13.30;88.20
45785;DHT22;31489;51.404;5.474;2023-11-21T10:51:46;13.30;88.40
45785;DHT22;31489;51.404;5.474;2023-11-21T10:54:18;13.40;88.40
45785;DHT22;31489;51.404;5.474;2023-11-21T10:56:44;13.40;88.40
45785;DHT22;31489;51.404;5.474;2023-11-21T10:59:11;13.50;88.50
45785;DHT22;31489;51.404;5.474;2023-11-21T11:01:44;13.50;88.50
45785;DHT22;31489;51.404;5.474;2023-11-21T11:04:11;13.50;88.60
45785;DHT22;31489;51.404;5.474;2023-11-21T11:06:48;13.60;88.70
45785;DHT22;31489;51.404;5.474;2023-11-21T11:09:17;13.60;88.80
45785;DHT22;31489;51.404;5.474;2023-11-21T11:11:43;13.70;88.80
45785;DHT22;31489;51.404;5.474;2023-11-21T11:14:12;13.70;88.90
45785;DHT22;31489;51.404;5.474;2023-11-21T11:16:39;13.70;88.80
45785;DHT22;31489;51.404;5.474;2023-11-21T11:19:09;13.80;88.90
45785;DHT22;31489;51.404;5.474;2023-11-21T11:22:04;13.80;88.90
45785;DHT22;31489;51.404;5.474;2023-11-21T11:35:19;14.00;88.80
45785;DHT22;31489;51.404;5.474;2023-11-21T11:37:49;14.00;88.70
45785;DHT22;31489;51.404;5.474;2023-11-21T11:40:15;14.00;88.70
45785;DHT22;31489;51.404;5.474;2023-11-21T11:42:56;14.00;88.60
45785;DHT22;31489;51.404;5.474;2023-11-21T11:45:26;14.10;88.60
45785;DHT22;31489;51.404;5.474;2023-11-21T11:47:57;14.10;88.60
45785;DHT22;31489;51.404;5.474;2023-11-21T11:50:22;14.10;88.50
45785;DHT22;31489;51.404;5.474;2023-11-21T11:52:50;14.10;88.50
45785;DHT22;31489;51.404;5.474;2023-11-21T11:55:19;14.10;88.50
45785;DHT22;31489;51.404;5.474;2023-11-21T11:57:48;14.10;88.50
45785;DHT22;31489;51.404;5.474;2023-11-21T12:00:34;14.10;88.80
45785;DHT22;31489;51.404;5.474;2023-11-21T12:03:04;14.10;89.00
45785;DHT22;31489;51.404;5.474;2023-11-21T12:05:32;14.20;89.10
45785;DHT22;31489;51.404;5.474;2023-11-21T12:08:00;14.20;88.90
45785;DHT22;31489;51.404;5.474;2023-11-21T12:10:28;14.20;88.80
45785;DHT22;31489;51.404;5.474;2023-11-21T12:12:58;14.30;88.80
45785;DHT22;31489;51.404;5.474;2023-11-21T12:15:25;14.30;88.60
45785;DHT22;31489;51.404;5.474;2023-11-21T12:17:51;14.30;88.40
45785;DHT22;31489;51.404;5.474;2023-11-21T12:20:22;14.30;88.40
45785;DHT22;31489;51.404;5.474;2023-11-21T12:22:53;14.30;88.20
45785;DHT22;31489;51.404;5.474;2023-11-21T12:25:26;14.40;88.30
45785;DHT22;31489;51.404;5.474;2023-11-21T12:27:58;14.40;88.30
45785;DHT22;31489;51.404;5.474;2023-11-21T12:30:29;14.40;88.30
45785;DHT22;31489;51.404;5.474;2023-11-21T12:32:57;14.40;88.00
45785;DHT22;31489;51.404;5.474;2023-11-21T12:35:31;14.40;88.00
45785;DHT22;31489;51.404;5.474;2023-11-21T12:38:00;14.40;87.80
45785;DHT22;31489;51.404;5.474;2023-11-21T12:40:28;14.40;87.90
45785;DHT22;31489;51.404;5.474;2023-11-21T12:42:56;14.40;87.80
45785;DHT22;31489;51.404;5.474;2023-11-21T12:45:27;14.40;87.70
45785;DHT22;31489;51.404;5.474;2023-11-21T12:47:58;14.40;87.70
45785;DHT22;31489;51.404;5.474;2023-11-21T12:50:26;14.40;87.60
45785;DHT22;31489;51.404;5.474;2023-11-21T12:55:30;14.40;87.60
45785;DHT22;31489;51.404;5.474;2023-11-21T12:57:56;14.40;87.60
45785;DHT22;31489;51.404;5.474;2023-11-21T13:00:32;14.40;87.70
45785;DHT22;31489;51.404;5.474;2023-11-21T13:02:59;14.40;87.60
45785;DHT22;31489;51.404;5.474;2023-11-21T13:05:26;14.40;87.70
45785;DHT22;31489;51.404;5.474;2023-11-21T13:07:53;14.40;87.60
45785;DHT22;31489;51.404;5.474;2023-11-21T13:10:22;14.40;87.60
45785;DHT22;31489;51.404;5.474;2023-11-21T13:12:52;14.40;87.60
45785;DHT22;31489;51.404;5.474;2023-11-21T13:15:17;14.40;87.60
45785;DHT22;31489;51.404;5.474;2023-11-21T13:17:44;14.40;87.70
45785;DHT22;31489;51.404;5.474;2023-11-21T13:20:11;14.40;87.60
45785;DHT22;31489;51.404;5.474;2023-11-21T13:23:06;14.40;88.20
45785;DHT22;31489;51.404;5.474;2023-11-21T13:25:32;14.40;87.40
45785;DHT22;31489;51.404;5.474;2023-11-21T13:27:59;14.40;87.60
45785;DHT22;31489;51.404;5.474;2023-11-21T13:30:26;14.40;87.60
45785;DHT22;31489;51.404;5.474;2023-11-21T13:32:56;14.40;87.60
45785;DHT22;31489;51.404;5.474;2023-11-21T13:35:23;14.40;87.40
45785;DHT22;31489;51.404;5.474;2023-11-21T13:38:05;14.40;88.10
45785;DHT22;31489;51.404;5.474;2023-11-21T13:40:32;14.30;87.50
45785;DHT22;31489;51.404;5.474;2023-11-21T13:43:02;14.30;87.60
45785;DHT22;31489;51.404;5.474;2023-11-21T13:45:30;14.30;87.60
45785;DHT22;31489;51.404;5.474;2023-11-21T13:47:56;14.30;87.70
45785;DHT22;31489;51.404;5.474;2023-11-21T13:50:28;14.30;87.80
45785;DHT22;31489;51.404;5.474;2023-11-21T13:53:01;14.30;88.40
45785;DHT22;31489;51.404;5.474;2023-11-21T13:55:42;14.40;88.00
45785;DHT22;31489;51.404;5.474;2023-11-21T13:58:07;14.40;88.00
45785;DHT22;31489;51.404;5.474;2023-11-21T14:00:37;14.40;87.90
45785;DHT22;31489;51.404;5.474;2023-11-21T14:03:12;14.40;87.90
45785;DHT22;31489;51.404;5.474;2023-11-21T14:05:47;14.40;87.90
45785;DHT22;31489;51.404;5.474;2023-11-21T14:08:22;14.40;87.80
45785;DHT22;31489;51.404;5.474;2023-11-21T14:10:54;14.40;87.70
45785;DHT22;31489;51.404;5.474;2023-11-21T14:13:23;14.40;87.60
45785;DHT22;31489;51.404;5.474;2023-11-21T14:15:50;14.40;87.60
45785;DHT22;31489;51.404;5.474;2023-11-21T14:18:23;14.40;87.50
45785;DHT22;31489;51.404;5.474;2023-11-21T14:20:56;14.50;87.40
45785;DHT22;31489;51.404;5.474;2023-11-21T14:23:21;14.40;87.10
45785;DHT22;31489;51.404;5.474;2023-11-21T14:25:49;14.50;87.10
45785;DHT22;31489;51.404;5.474;2023-11-21T14:28:16;14.40;87.00
45785;DHT22;31489;51.404;5.474;2023-11-21T14:30:42;14.40;86.90
45785;DHT22;31489;51.404;5.474;2023-11-21T14:33:08;14.40;87.00
45785;DHT22;31489;51.404;5.474;2023-11-21T14:35:35;14.50;87.10
45785;DHT22;31489;51.404;5.474;2023-11-21T14:38:02;14.40;87.00
45785;DHT22;31489;51.404;5.474;2023-11-21T14:40:30;14.40;87.00
45785;DHT22;31489;51.404;5.474;2023-11-21T14:43:00;14.40;87.00
45785;DHT22;31489;51.404;5.474;2023-11-21T14:45:26;14.40;87.00
45785;DHT22;31489;51.404;5.474;2023-11-21T14:47:52;14.40;87.00
45785;DHT22;31489;51.404;5.474;2023-11-21T14:50:44;14.40;87.00
45785;DHT22;31489;51.404;5.474;2023-11-21T14:53:30;14.40;87.00
45785;DHT22;31489;51.404;5.474;2023-11-21T14:56:14;14.40;87.00
45785;DHT22;31489;51.404;5.474;2023-11-21T14:58:48;14.40;86.90
45785;DHT22;31489;51.404;5.474;2023-11-21T15:01:14;14.40;87.00
45785;DHT22;31489;51.404;5.474;2023-11-21T15:03:39;14.40;87.00
45785;DHT22;31489;51.404;5.474;2023-11-21T15:06:15;14.40;86.90
45785;DHT22;31489;51.404;5.474;2023-11-21T15:08:57;14.40;86.90
45785;DHT22;31489;51.404;5.474;2023-11-21T15:11:32;14.40;86.80
45785;DHT22;31489;51.404;5.474;2023-11-21T15:13:58;14.40;86.90
45785;DHT22;31489;51.404;5.474;2023-11-21T15:16:24;14.40;86.80
45785;DHT22;31489;51.404;5.474;2023-11-21T15:18:52;14.40;86.80
45785;DHT22;31489;51.404;5.474;2023-11-21T15:21:19;14.40;86.70
45785;DHT22;31489;51.404;5.474;2023-11-21T15:23:46;14.40;86.70
45785;DHT22;31489;51.404;5.474;2023-11-21T15:26:12;14.40;86.80
45785;DHT22;31489;51.404;5.474;2023-11-21T15:28:38;14.40;86.80
45785;DHT22;31489;51.404;5.474;2023-11-21T15:31:04;14.40;86.80
45785;DHT22;31489;51.404;5.474;2023-11-21T15:33:30;14.40;86.80
45785;DHT22;31489;51.404;5.474;2023-11-21T15:35:56;14.40;86.70
45785;DHT22;31489;51.404;5.474;2023-11-21T15:38:23;14.40;86.70
45785;DHT22;31489;51.404;5.474;2023-11-21T15:40:49;14.40;86.70
45785;DHT22;31489;51.404;5.474;2023-11-21T15:43:15;14.40;86.70
45785;DHT22;31489;51.404;5.474;2023-11-21T15:45:41;14.40;86.80